Terminal Aerodrome Forecast
Issued by NWS Cleveland, OH

Home | Current Version | Previous Version | Graphics & Text | Print | Product List | Glossary On
Versions: 1 2 3 4 5 6 7 8 9 10 11 12 13 14 15 16 17 18 19 20 21 22
000
FTUS41 KCLE 031900 AAA
TAFMFD
TAF AMD
KMFD 031932Z 0320/0418 18011KT 3SM -FZRA BR BKN006 OVC010
      WS020/22040KT
     FM032200 22012G20KT 2SM -SHRA BR BKN005 OVC010 WS020/22040KT
     FM040600 24015G25KT 3SM -SHSN BKN005 OVC015
     FM041200 29008KT 3SM -SN BR OVC006=

USA.gov is the U.S. government's official web portal to all federal, state and local government web resources and services.